createdAt,value
2018-03-03T00:00:58.138Z,100001.67
2018-03-03T00:03:27.867Z,100006.64
2018-03-03T00:05:56.691Z,100007.31
2018-03-03T00:08:26.701Z,100004.16
2018-03-03T00:11:01.125Z,100016.91
2018-03-03T00:13:29.950Z,100008.83
2018-03-03T00:15:58.350Z,100019.56
2018-03-03T00:18:28.197Z,100030.45
2018-03-03T00:20:57.653Z,100018.95
2018-03-03T00:23:27.662Z,100019.33
2018-03-03T00:25:56.332Z,100027.70
2018-03-03T00:28:24.737Z,100033.82
2018-03-03T00:30:53.181Z,100030.41
2018-03-03T00:33:23.560Z,100024.36
2018-03-03T00:35:52.831Z,100026.25
2018-03-03T00:38:22.236Z,100024.31
2018-03-03T00:40:50.978Z,100016.48
2018-03-03T00:43:20.690Z,100032.55
2018-03-03T00:45:50.045Z,100027.16
2018-03-03T00:48:19.102Z,100041.74
2018-03-03T00:50:49.393Z,100036.06
2018-03-03T00:53:19.601Z,100030.53
2018-03-03T00:55:48.040Z,100034.00
2018-03-03T00:58:19.665Z,100033.45
2018-03-03T01:00:48.483Z,100035.23
2018-03-03T01:03:18.959Z,100041.12
2018-03-03T01:05:47.566Z,100036.72
2018-03-03T01:08:16.041Z,100038.57
2018-03-03T01:10:45.027Z,100034.98
2018-03-03T01:13:13.895Z,100039.33
2018-03-03T01:15:42.301Z,100033.38
2018-03-03T01:18:10.718Z,100029.77
2018-03-03T01:20:40.139Z,100033.19
2018-03-03T01:23:08.999Z,100030.95
2018-03-03T01:25:38.310Z,100036.86
2018-03-03T01:28:07.629Z,100036.42
2018-03-03T01:30:36.693Z,100037.52
2018-03-03T01:33:06.747Z,100025.64
2018-03-03T01:35:36.381Z,100027.64
2018-03-03T01:38:05.200Z,100034.58
2018-03-03T01:40:34.374Z,100025.02
2018-03-03T01:43:04.467Z,100025.92
2018-03-03T01:45:33.334Z,100033.63
2018-03-03T01:48:02.229Z,100036.27
2018-03-03T01:50:30.951Z,100033.32
2018-03-03T01:53:00.846Z,100034.22
2018-03-03T01:55:30.691Z,100033.11
2018-03-03T01:57:59.846Z,100034.89
2018-03-03T02:00:30.155Z,100029.70
2018-03-03T02:03:01.208Z,100036.59
2018-03-03T02:05:29.974Z,100019.38
2018-03-03T02:08:00.267Z,100013.77
2018-03-03T02:10:29.080Z,100009.54
2018-03-03T02:12:57.489Z,100008.60
2018-03-03T02:15:26.794Z,100009.04
2018-03-03T02:17:55.646Z,100010.41
2018-03-03T02:20:25.095Z,100011.36
2018-03-03T02:22:54.053Z,100027.37
2018-03-03T02:25:24.190Z,100011.27
2018-03-03T02:27:52.777Z,100020.89
2018-03-03T02:30:21.629Z,100022.54
2018-03-03T02:32:50.390Z,100009.05
2018-03-03T02:35:20.283Z,100008.74
2018-03-03T02:37:49.143Z,100006.83
2018-03-03T02:40:18.872Z,100020.20
2018-03-03T02:42:47.676Z,100018.47
2018-03-03T02:45:16.379Z,100013.78
2018-03-03T02:47:45.233Z,100010.47
2018-03-03T02:50:14.327Z,100014.57
2018-03-03T02:52:43.604Z,100021.81
2018-03-03T02:55:12.010Z,100013.33
2018-03-03T02:57:42.007Z,100015.61
2018-03-03T03:00:11.679Z,100008.11
2018-03-03T03:02:40.775Z,100000.27
2018-03-03T03:05:09.195Z,100010.37
2018-03-03T03:07:38.062Z,100005.15
2018-03-03T03:10:06.999Z,100002.55
2018-03-03T03:12:35.641Z,100004.13
2018-03-03T03:15:04.891Z,100004.61
2018-03-03T03:17:34.090Z,100009.93
2018-03-03T03:20:03.365Z,100006.63
2018-03-03T03:22:33.290Z,100011.39
2018-03-03T03:25:01.827Z,99999.58
2018-03-03T03:27:30.425Z,99999.28
2018-03-03T03:30:00.094Z,99998.02
2018-03-03T03:32:29.793Z,100006.58
2018-03-03T03:34:59.996Z,99999.88
2018-03-03T03:37:28.779Z,100003.75
2018-03-03T03:39:57.527Z,100007.36
2018-03-03T03:42:28.033Z,99999.88
2018-03-03T03:44:56.501Z,100007.41
2018-03-03T03:47:26.272Z,100009.13
2018-03-03T03:49:55.601Z,100014.26
2018-03-03T03:52:25.968Z,100008.17
2018-03-03T03:54:56.520Z,100007.28
2018-03-03T03:57:25.398Z,100017.53
2018-03-03T03:59:56.037Z,100006.72
2018-03-03T04:02:26.017Z,100012.55
2018-03-03T04:04:56.125Z,100009.58
2018-03-03T04:07:25.546Z,100020.02
2018-03-03T04:09:54.323Z,100020.67
2018-03-03T04:12:23.468Z,100018.71
2018-03-03T04:14:52.705Z,100015.34
2018-03-03T04:17:21.433Z,100026.28
2018-03-03T04:19:51.794Z,100021.70
2018-03-03T04:22:21.320Z,100015.50
2018-03-03T04:24:51.707Z,100010.54
2018-03-03T04:27:20.996Z,100005.99
2018-03-03T04:29:49.422Z,100012.85
2018-03-03T04:32:19.223Z,100021.25
2018-03-03T04:34:48.161Z,100017.73
2018-03-03T04:37:18.456Z,100008.48
2018-03-03T04:39:47.442Z,100009.88
2018-03-03T04:42:15.857Z,100019.48
2018-03-03T04:44:45.061Z,100014.98
2018-03-03T04:47:13.988Z,100016.96
2018-03-03T04:49:43.915Z,100006.43
2018-03-03T04:52:14.622Z,100005.78
2018-03-03T04:54:43.067Z,100008.94
2018-03-03T04:57:12.001Z,100013.50
2018-03-03T04:59:57.891Z,100013.44
2018-03-03T05:02:27.863Z,100004.25
2018-03-03T05:08:20.773Z,100016.72
2018-03-03T05:10:51.844Z,100011.25
2018-03-03T05:13:22.612Z,100007.14
2018-03-03T05:19:09.533Z,100004.61
2018-03-03T05:21:44.439Z,100007.60
2018-03-03T05:24:18.410Z,100003.76
2018-03-03T05:26:53.789Z,100002.48
2018-03-03T05:32:33.887Z,100003.80
2018-03-03T05:35:07.941Z,100006.95
2018-03-03T05:37:42.626Z,100013.22
2018-03-03T05:40:19.122Z,100018.91
2018-03-03T05:46:06.474Z,100010.40
2018-03-03T05:48:49.102Z,100015.55
2018-03-03T05:54:29.116Z,100007.84
2018-03-03T05:57:02.839Z,100024.47
2018-03-03T05:59:36.998Z,100024.98
2018-03-03T06:05:26.289Z,100009.91
2018-03-03T06:07:57.434Z,100018.67
2018-03-03T06:10:30.267Z,100022.92
2018-03-03T06:12:59.961Z,100016.91
2018-03-03T06:15:29.477Z,100004.98
2018-03-03T06:17:59.706Z,100008.06
2018-03-03T06:20:28.678Z,100004.73
2018-03-03T06:22:57.451Z,100008.05
2018-03-03T06:25:26.074Z,100007.94
2018-03-03T06:27:54.567Z,99999.50
2018-03-03T06:30:23.394Z,100001.20
2018-03-03T06:32:52.587Z,100002.73
2018-03-03T06:35:22.996Z,99997.67
2018-03-03T06:37:51.625Z,99998.61
2018-03-03T06:40:21.824Z,99994.78
2018-03-03T06:42:51.446Z,99991.63
2018-03-03T06:45:20.334Z,99995.90
2018-03-03T06:47:48.905Z,99995.13
2018-03-03T06:50:18.660Z,99987.81
2018-03-03T06:52:48.884Z,99990.97
2018-03-03T06:55:18.669Z,99994.25
2018-03-03T06:57:47.228Z,99986.55
2018-03-03T07:00:15.968Z,99983.67
2018-03-03T07:02:44.917Z,99990.78
2018-03-03T07:05:15.216Z,99983.53
2018-03-03T07:07:43.593Z,99975.54
2018-03-03T07:10:12.417Z,99983.23
2018-03-03T07:12:44.326Z,99980.06
2018-03-03T07:15:15.424Z,99987.45
2018-03-03T07:17:45.294Z,99983.30
2018-03-03T07:20:14.775Z,99976.37
2018-03-03T07:22:45.069Z,99975.97
2018-03-03T07:25:13.857Z,99981.27
2018-03-03T07:27:44.485Z,99979.71
2018-03-03T07:30:13.433Z,99971.88
2018-03-03T07:32:43.350Z,99971.93
2018-03-03T07:35:11.874Z,99975.11
2018-03-03T07:37:41.706Z,99975.81
2018-03-03T07:40:10.333Z,99979.55
2018-03-03T07:42:38.910Z,99972.17
2018-03-03T07:45:09.100Z,99970.92
2018-03-03T07:47:38.293Z,99968.39
2018-03-03T07:50:07.584Z,99970.78
2018-03-03T07:52:36.551Z,99963.13
2018-03-03T07:55:05.559Z,99961.76
2018-03-03T07:57:35.595Z,99966.27
2018-03-03T08:00:04.720Z,99958.07
2018-03-03T08:02:33.672Z,99967.21
2018-03-03T08:05:03.554Z,99975.24
2018-03-03T08:07:33.522Z,99969.14
2018-03-03T08:10:02.861Z,99964.89
2018-03-03T08:12:31.346Z,99962.97
2018-03-03T08:14:59.708Z,99963.39
2018-03-03T08:17:28.066Z,99951.64
2018-03-03T08:20:00.139Z,99953.91
2018-03-03T08:22:28.892Z,99969.84
2018-03-03T08:24:57.693Z,99959.52
2018-03-03T08:27:28.680Z,99968.50
2018-03-03T08:29:58.851Z,99947.84
2018-03-03T08:32:27.557Z,99957.42
2018-03-03T08:35:01.502Z,99965.93
2018-03-03T08:37:30.554Z,99950.13
2018-03-03T08:40:00.890Z,99952.83
2018-03-03T08:42:29.720Z,99948.34
2018-03-03T08:44:58.094Z,99955.33
2018-03-03T08:47:26.918Z,99951.31
2018-03-03T08:49:56.488Z,99962.25
2018-03-03T08:52:25.899Z,99949.09
2018-03-03T08:54:54.711Z,99976.19
2018-03-03T08:57:23.115Z,99957.16
2018-03-03T08:59:52.812Z,99955.87
2018-03-03T09:02:21.176Z,99947.56
2018-03-03T09:04:49.522Z,99958.17
2018-03-03T09:07:17.863Z,99953.95
2018-03-03T09:09:46.646Z,99958.56
2018-03-03T09:12:15.404Z,99959.96
2018-03-03T09:14:43.759Z,99962.77
2018-03-03T09:17:12.122Z,99951.22
2018-03-03T09:19:40.544Z,99973.72
2018-03-03T09:22:08.908Z,99955.51
2018-03-03T09:24:37.266Z,99955.15
2018-03-03T09:27:05.619Z,99948.61
2018-03-03T09:29:33.972Z,99958.77
2018-03-03T09:32:02.349Z,99959.06
2018-03-03T09:34:31.227Z,99953.80
2018-03-03T09:37:00.067Z,99956.77
2018-03-03T09:39:28.468Z,99966.77
2018-03-03T09:41:56.861Z,99969.34
2018-03-03T09:44:25.242Z,99959.02
2018-03-03T09:46:53.599Z,99965.13
2018-03-03T09:49:22.033Z,99966.62
2018-03-03T09:51:50.779Z,99948.95
2018-03-03T09:54:19.139Z,99963.17
2018-03-03T09:56:47.495Z,99948.80
2018-03-03T09:59:15.841Z,99944.76
2018-03-03T10:01:44.215Z,99951.69
2018-03-03T10:04:12.557Z,99944.38
2018-03-03T10:06:40.912Z,99940.40
2018-03-03T10:09:09.320Z,99938.65
2018-03-03T10:11:37.691Z,99959.77
2018-03-03T10:14:06.084Z,99952.56
2018-03-03T10:16:34.422Z,99936.20
2018-03-03T10:19:04.921Z,99945.95
2018-03-03T10:21:33.258Z,99941.17
2018-03-03T10:24:01.634Z,99942.21
2018-03-03T10:26:29.978Z,99937.59
2018-03-03T10:28:58.720Z,99935.62
2018-03-03T10:31:27.087Z,99940.73
2018-03-03T10:33:55.439Z,99931.38
2018-03-03T10:36:23.860Z,99942.97
2018-03-03T10:38:52.306Z,99933.13
2018-03-03T10:41:20.711Z,99940.37
2018-03-03T10:43:49.085Z,99937.36
2018-03-03T10:46:17.448Z,99934.99
2018-03-03T10:48:45.848Z,99939.95
2018-03-03T10:51:14.198Z,99931.06
2018-03-03T10:53:42.613Z,99931.23
2018-03-03T10:56:10.958Z,99923.27
2018-03-03T10:58:39.356Z,99923.78
2018-03-03T11:01:07.821Z,99912.29
2018-03-03T11:03:36.171Z,99916.03
2018-03-03T11:06:04.931Z,99908.94
2018-03-03T11:08:33.383Z,99913.28
2018-03-03T11:11:01.735Z,99913.17
2018-03-03T11:13:30.162Z,99910.48
2018-03-03T11:15:58.538Z,99927.39
2018-03-03T11:18:26.883Z,99912.28
2018-03-03T11:20:55.287Z,99904.53
2018-03-03T11:23:23.638Z,99897.45
2018-03-03T11:25:52.034Z,99905.46
2018-03-03T11:28:20.400Z,99907.47
2018-03-03T11:30:48.773Z,99908.21
2018-03-03T11:33:17.127Z,99901.84
2018-03-03T11:35:45.891Z,99903.84
2018-03-03T11:38:14.339Z,99913.70
2018-03-03T11:40:42.692Z,99927.94
2018-03-03T11:43:11.051Z,99919.77
2018-03-03T11:45:39.808Z,99920.56
2018-03-03T11:48:08.228Z,99919.17
2018-03-03T11:50:36.578Z,99922.41
2018-03-03T11:53:05.026Z,99920.42
2018-03-03T11:55:33.400Z,99921.95
2018-03-03T11:58:01.799Z,99924.33
2018-03-03T12:00:30.163Z,99940.42
2018-03-03T12:02:58.533Z,99921.94
2018-03-03T12:05:26.920Z,99936.22
2018-03-03T12:07:55.272Z,99910.20
2018-03-03T12:10:23.626Z,99907.39
2018-03-03T12:12:52.371Z,99908.89
2018-03-03T12:15:20.737Z,99908.20
2018-03-03T12:17:49.092Z,99902.61
2018-03-03T12:20:17.460Z,99913.80
2018-03-03T12:22:45.805Z,99920.88
2018-03-03T12:25:14.163Z,99921.45
2018-03-03T12:27:42.527Z,99921.38
2018-03-03T12:30:10.886Z,99917.20
2018-03-03T12:32:39.271Z,99923.92
2018-03-03T12:35:07.690Z,99904.23
2018-03-03T12:37:36.047Z,99904.45
2018-03-03T12:40:04.451Z,99910.29
2018-03-03T12:42:32.912Z,99910.06
2018-03-03T12:45:01.328Z,99903.06
2018-03-03T12:47:30.210Z,99893.55
2018-03-03T12:49:58.581Z,99894.83
2018-03-03T12:52:27.531Z,99902.15
2018-03-03T12:54:55.901Z,99898.73
2018-03-03T12:57:24.321Z,99905.19
2018-03-03T12:59:52.682Z,99906.95
2018-03-03T13:02:21.062Z,99903.55
2018-03-03T13:04:49.447Z,99899.77
2018-03-03T13:07:17.875Z,99906.79
2018-03-03T13:09:46.641Z,99910.70
2018-03-03T13:12:15.123Z,99898.30
2018-03-03T13:14:43.476Z,99906.47
2018-03-03T13:17:11.891Z,99893.48
2018-03-03T13:19:40.749Z,99907.41
2018-03-03T13:22:09.097Z,99899.98
2018-03-03T13:24:37.469Z,99886.13
2018-03-03T13:27:05.891Z,99903.80
2018-03-03T13:29:34.234Z,99887.55
2018-03-03T13:32:02.585Z,99886.94
2018-03-03T13:34:31.351Z,99881.34
2018-03-03T13:36:59.820Z,99875.52
2018-03-03T13:39:28.348Z,99882.66
2018-03-03T13:41:56.771Z,99880.42
2018-03-03T13:44:25.150Z,99883.88
2018-03-03T13:46:53.551Z,99900.48
2018-03-03T13:49:21.912Z,99891.97
2018-03-03T13:51:50.264Z,99887.27
2018-03-03T13:54:18.704Z,99876.20
2018-03-03T13:56:47.459Z,99879.63
2018-03-03T13:59:15.803Z,99878.09
2018-03-03T14:01:44.224Z,99883.11
2018-03-03T14:04:12.703Z,99875.09
2018-03-03T14:06:41.075Z,99873.99
2018-03-03T14:09:09.432Z,99872.36
2018-03-03T14:11:37.804Z,99874.92
2018-03-03T14:14:06.173Z,99890.55
2018-03-03T14:16:34.577Z,99871.20
2018-03-03T14:19:02.936Z,99862.34
2018-03-03T14:21:31.298Z,99864.34
2018-03-03T14:23:59.658Z,99870.09
2018-03-03T14:26:28.407Z,99865.08
2018-03-03T14:28:56.814Z,99863.84
2018-03-03T14:31:25.217Z,99868.72
2018-03-03T14:33:53.648Z,99856.77
2018-03-03T14:36:21.996Z,99864.08
2018-03-03T14:38:50.355Z,99859.76
2018-03-03T14:41:19.103Z,99858.53
2018-03-03T14:43:47.517Z,99855.14
2018-03-03T14:46:16.252Z,99860.78
2018-03-03T14:48:44.610Z,99855.52
2018-03-03T14:51:12.996Z,99857.42
2018-03-03T14:53:41.356Z,99848.67
2018-03-03T14:56:09.714Z,99850.67
2018-03-03T14:58:38.482Z,99854.02
2018-03-03T15:01:06.937Z,99847.31
2018-03-03T15:03:35.301Z,99857.34
2018-03-03T15:06:03.652Z,99854.36
2018-03-03T15:08:32.049Z,99858.23
2018-03-03T15:11:00.404Z,99860.05
2018-03-03T15:13:28.840Z,99862.63
2018-03-03T15:15:57.188Z,99858.17
2018-03-03T15:18:25.547Z,99855.09
2018-03-03T15:20:53.896Z,99859.11
2018-03-03T15:23:22.256Z,99860.20
2018-03-03T15:25:50.608Z,99857.88
2018-03-03T15:28:18.966Z,99855.53
2018-03-03T15:30:47.308Z,99863.89
2018-03-03T15:33:15.664Z,99872.95
2018-03-03T15:35:44.055Z,99858.16
2018-03-03T15:38:12.443Z,99864.06
2018-03-03T15:40:40.906Z,99864.17
2018-03-03T15:43:09.287Z,99867.62
2018-03-03T15:45:37.656Z,99884.47
2018-03-03T15:48:06.019Z,99884.47
2018-03-03T15:50:34.377Z,99875.27
2018-03-03T15:53:02.822Z,99877.91
2018-03-03T15:55:31.679Z,99878.21
2018-03-03T15:58:00.090Z,99882.62
2018-03-03T16:00:28.541Z,99882.72
2018-03-03T16:02:56.931Z,99887.53
2018-03-03T16:05:25.313Z,99888.16
2018-03-03T16:07:53.704Z,99890.09
2018-03-03T16:10:22.072Z,99882.00
2018-03-03T16:12:50.447Z,99882.48
2018-03-03T16:15:18.808Z,99890.27
2018-03-03T16:17:47.185Z,99892.80
2018-03-03T16:20:15.540Z,99903.16
2018-03-03T16:22:43.907Z,99891.39
2018-03-03T16:25:12.272Z,99894.12
2018-03-03T16:27:41.031Z,99891.00
2018-03-03T16:30:09.397Z,99902.98
2018-03-03T16:32:37.781Z,99896.16
2018-03-03T16:35:06.146Z,99904.80
2018-03-03T16:37:34.555Z,99898.32
2018-03-03T16:40:02.932Z,99900.56
2018-03-03T16:42:31.315Z,99909.45
2018-03-03T16:44:59.725Z,99911.52
2018-03-03T16:47:28.502Z,99913.34
2018-03-03T16:49:57.011Z,99914.70
2018-03-03T16:52:25.396Z,99930.11
2018-03-03T16:54:53.752Z,99924.91
2018-03-03T16:57:22.218Z,99929.00
2018-03-03T16:59:50.982Z,99926.91
2018-03-03T17:02:19.364Z,99932.28
2018-03-03T17:04:47.738Z,99929.91
2018-03-03T17:07:16.103Z,99931.45
2018-03-03T17:09:44.467Z,99928.29
2018-03-03T17:12:12.839Z,99928.99
2018-03-03T17:14:41.223Z,99926.38
2018-03-03T17:17:09.599Z,99922.44
2018-03-03T17:19:37.967Z,99924.63
2018-03-03T17:22:06.336Z,99926.11
2018-03-03T17:24:34.712Z,99933.47
2018-03-03T17:27:03.117Z,99927.09
2018-03-03T17:29:31.470Z,99935.56
2018-03-03T17:31:59.841Z,99933.69
2018-03-03T17:34:28.190Z,99927.02
2018-03-03T17:36:56.784Z,99927.63
2018-03-03T17:39:25.142Z,99932.00
2018-03-03T17:41:53.536Z,99924.06
2018-03-03T17:44:21.906Z,99929.47
2018-03-03T17:46:50.289Z,99930.75
2018-03-03T17:49:18.692Z,99932.30
2018-03-03T17:51:47.648Z,99929.32
2018-03-03T17:54:16.029Z,99924.52
2018-03-03T17:56:44.487Z,99929.03
2018-03-03T17:59:12.968Z,99933.25
2018-03-03T18:01:41.364Z,99938.78
2018-03-03T18:04:09.729Z,99936.09
2018-03-03T18:06:38.185Z,99938.36
2018-03-03T18:09:06.540Z,99939.31
2018-03-03T18:11:35.390Z,99936.89
2018-03-03T18:14:03.774Z,99935.67
2018-03-03T18:16:32.149Z,99941.16
2018-03-03T18:19:01.272Z,99943.22
2018-03-03T18:21:30.039Z,99949.24
2018-03-03T18:23:58.395Z,99943.89
2018-03-03T18:26:26.767Z,99957.61
2018-03-03T18:28:55.152Z,99957.36
2018-03-03T18:31:23.963Z,99963.59
2018-03-03T18:33:52.314Z,99962.05
2018-03-03T18:36:20.708Z,99954.59
2018-03-03T18:38:49.071Z,99963.33
2018-03-03T18:41:17.453Z,99964.80
2018-03-03T18:43:45.821Z,99957.25
2018-03-03T18:46:14.348Z,99964.02
2018-03-03T18:48:42.703Z,99969.16
2018-03-03T18:51:11.132Z,99964.77
2018-03-03T18:53:39.557Z,99967.27
2018-03-03T18:56:08.116Z,99977.72
2018-03-03T18:58:36.577Z,99979.77
2018-03-03T19:01:05.337Z,99975.22
2018-03-03T19:03:33.736Z,99987.92
2018-03-03T19:06:02.510Z,99984.60
2018-03-03T19:08:30.885Z,99984.94
2018-03-03T19:10:59.280Z,99990.55
2018-03-03T19:13:28.031Z,99997.80
2018-03-03T19:15:56.418Z,99989.88
2018-03-03T19:18:24.758Z,100004.11
2018-03-03T19:20:53.155Z,100004.94
2018-03-03T19:23:21.529Z,100002.64
2018-03-03T19:25:49.916Z,100007.02
2018-03-03T19:28:18.276Z,99998.23
2018-03-03T19:30:46.681Z,100003.44
2018-03-03T19:33:15.129Z,99998.60
2018-03-03T19:35:43.524Z,100003.80
2018-03-03T19:38:11.876Z,99999.35
2018-03-03T19:40:40.259Z,100011.48
2018-03-03T19:43:08.652Z,100010.62
2018-03-03T19:45:37.022Z,100008.55
2018-03-03T19:48:05.378Z,100013.19
2018-03-03T19:50:33.798Z,100012.03
2018-03-03T19:53:02.222Z,100004.97
2018-03-03T19:55:30.638Z,100009.91
2018-03-03T19:57:59.056Z,100007.30
2018-03-03T20:00:27.431Z,100004.03
2018-03-03T20:02:55.911Z,100021.25
2018-03-03T20:05:24.343Z,100009.38
2018-03-03T20:07:52.719Z,100014.13
2018-03-03T20:10:21.131Z,100015.59
2018-03-03T20:12:49.572Z,100018.45
2018-03-03T20:15:18.351Z,100013.05
2018-03-03T20:17:46.714Z,100013.14
2018-03-03T20:20:15.503Z,100014.67
2018-03-03T20:22:43.869Z,100013.14
2018-03-03T20:25:12.254Z,100018.30
2018-03-03T20:27:40.627Z,100012.67
2018-03-03T20:30:09.082Z,100017.41
2018-03-03T20:32:37.486Z,100023.18
2018-03-03T20:35:05.866Z,100025.07
2018-03-03T20:37:34.298Z,100021.32
2018-03-03T20:40:02.704Z,100020.94
2018-03-03T20:42:31.106Z,100022.53
2018-03-03T20:45:00.004Z,100027.59
2018-03-03T20:47:28.382Z,100026.89
2018-03-03T20:49:57.192Z,100021.66
2018-03-03T20:52:25.652Z,100037.28
2018-03-03T20:54:54.031Z,100032.06
2018-03-03T20:57:22.923Z,100028.77
2018-03-03T20:59:51.709Z,100030.84
2018-03-03T21:02:21.342Z,100033.23
2018-03-03T21:04:50.743Z,100029.86
2018-03-03T21:07:19.172Z,100034.23
2018-03-03T21:09:47.891Z,100034.43
2018-03-03T21:12:18.704Z,100033.67
2018-03-03T21:14:48.280Z,100032.00
2018-03-03T21:17:17.151Z,100025.27
2018-03-03T21:19:45.630Z,100029.09
2018-03-03T21:22:15.893Z,100029.28
2018-03-03T21:24:45.224Z,100028.29
2018-03-03T21:27:14.147Z,100033.63
2018-03-03T21:29:44.993Z,100050.73
2018-03-03T21:32:14.301Z,100035.93
2018-03-03T21:34:42.704Z,100039.82
2018-03-03T21:37:11.118Z,100041.72
2018-03-03T21:39:40.423Z,100047.08
2018-03-03T21:42:09.253Z,100050.03
2018-03-03T21:44:37.656Z,100044.98
2018-03-03T21:47:07.130Z,100060.86
2018-03-03T21:49:36.528Z,100054.98
2018-03-03T21:52:05.822Z,100054.21
2018-03-03T21:54:34.269Z,100062.48
2018-03-03T21:57:04.033Z,100060.24
2018-03-03T21:59:35.180Z,100060.69
2018-03-03T22:02:03.626Z,100066.53
2018-03-03T22:04:32.046Z,100063.78
2018-03-03T22:07:00.469Z,100062.55
2018-03-03T22:09:30.079Z,100070.55
2018-03-03T22:11:58.885Z,100078.48
2018-03-03T22:14:28.101Z,100075.53
2018-03-03T22:16:56.610Z,100076.38
2018-03-03T22:19:26.164Z,100078.47
2018-03-03T22:21:55.686Z,100080.38
2018-03-03T22:24:25.105Z,100086.84
2018-03-03T22:26:54.078Z,100078.31
2018-03-03T22:29:23.594Z,100081.49
2018-03-03T22:31:52.095Z,100075.05
2018-03-03T22:34:20.837Z,100080.19
2018-03-03T22:36:50.263Z,100074.63
2018-03-03T22:39:18.666Z,100071.83
2018-03-03T22:41:47.063Z,100076.52
2018-03-03T22:44:16.109Z,100073.23
2018-03-03T22:46:45.262Z,100062.96
2018-03-03T22:49:14.310Z,100068.44
2018-03-03T22:51:44.376Z,100070.89
2018-03-03T22:54:14.910Z,100063.02
2018-03-03T22:56:43.879Z,100067.67
2018-03-03T22:59:13.892Z,100062.62
2018-03-03T23:01:43.882Z,100062.36
2018-03-03T23:04:12.365Z,100050.34
2018-03-03T23:06:40.777Z,100054.50
2018-03-03T23:09:09.619Z,100058.66
2018-03-03T23:11:38.025Z,100051.02
2018-03-03T23:14:06.442Z,100058.89
2018-03-03T23:16:35.316Z,100051.00
2018-03-03T23:19:04.102Z,100047.00
2018-03-03T23:21:32.806Z,100049.70
2018-03-03T23:24:01.396Z,100063.00
2018-03-03T23:26:29.919Z,100066.48
2018-03-03T23:29:00.316Z,100063.02
2018-03-03T23:31:30.389Z,100061.37
2018-03-03T23:33:59.349Z,100055.78
2018-03-03T23:36:28.343Z,100054.81
2018-03-03T23:38:56.823Z,100053.91
2018-03-03T23:41:25.258Z,100052.89
2018-03-03T23:43:55.359Z,100056.63
2018-03-03T23:46:24.193Z,100057.70
2018-03-03T23:48:55.814Z,100049.75
2018-03-03T23:51:24.646Z,100046.78
2018-03-03T23:53:53.780Z,100046.61
2018-03-03T23:56:23.752Z,100059.06
2018-03-03T23:58:53.389Z,100049.98
